TAF and METAR

METAR for Ouro Sogui Airport

GOSM 020800Z 32002KT CAVOK 27/24 Q1013
Report created 2. jul 10:00
wind 2 knots from NW (320°) Clear sky Temperature 27° with dewpoint at 24° (Humidity 83.71%) Pressure 1013 hPa
No TAF available for Ouro Sogui Airport